createdAt,value
2018-10-16T00:00:48.412Z,10.90
2018-10-16T00:03:17.225Z,11.18
2018-10-16T00:05:45.915Z,11.27
2018-10-16T00:08:14.908Z,11.00
2018-10-16T00:10:45.999Z,11.27
2018-10-16T00:13:15.082Z,10.99
2018-10-16T00:15:44.155Z,11.11
2018-10-16T00:18:13.327Z,10.95
2018-10-16T00:20:42.717Z,10.85
2018-10-16T00:23:12.012Z,10.74
2018-10-16T00:25:40.908Z,10.76
2018-10-16T00:28:09.989Z,10.59
2018-10-16T00:30:38.718Z,10.58
2018-10-16T00:33:07.471Z,10.87
2018-10-16T00:35:36.299Z,10.98
2018-10-16T00:38:05.152Z,11.06
2018-10-16T00:40:33.831Z,10.67
2018-10-16T00:43:03.055Z,10.60
2018-10-16T00:45:31.869Z,10.55
2018-10-16T00:48:00.719Z,10.42
2018-10-16T00:50:29.856Z,10.40
2018-10-16T00:52:59.102Z,10.19
2018-10-16T00:55:27.905Z,10.54
2018-10-16T00:57:56.704Z,10.42
2018-10-16T01:00:25.471Z,10.54
2018-10-16T01:02:54.458Z,10.71
2018-10-16T01:05:23.200Z,10.73
2018-10-16T01:07:51.889Z,10.79
2018-10-16T01:10:20.862Z,10.78
2018-10-16T01:12:49.637Z,10.71
2018-10-16T01:15:18.475Z,10.75
2018-10-16T01:17:47.456Z,10.36
2018-10-16T01:20:16.402Z,10.23
2018-10-16T01:22:45.299Z,9.98
2018-10-16T01:25:14.535Z,9.89
2018-10-16T01:27:43.429Z,9.99
2018-10-16T01:30:12.123Z,9.67
2018-10-16T01:32:41.029Z,9.71
2018-10-16T01:35:11.228Z,9.67
2018-10-16T01:37:40.627Z,9.87
2018-10-16T01:40:11.795Z,10.05
2018-10-16T01:42:40.738Z,10.05
2018-10-16T01:45:10.182Z,9.83
2018-10-16T01:47:39.410Z,9.54
2018-10-16T01:50:08.672Z,9.38
2018-10-16T01:52:37.775Z,9.13
2018-10-16T01:55:07.042Z,9.16
2018-10-16T01:57:35.823Z,9.12
2018-10-16T02:00:04.647Z,9.05
2018-10-16T02:02:33.753Z,8.97
2018-10-16T02:05:02.387Z,9.04
2018-10-16T02:07:31.493Z,9.02
2018-10-16T02:10:01.351Z,9.01
2018-10-16T02:12:30.103Z,8.89
2018-10-16T02:14:58.891Z,8.84
2018-10-16T02:17:27.711Z,9.05
2018-10-16T02:19:56.474Z,8.87
2018-10-16T02:22:25.138Z,8.92
2018-10-16T02:24:54.292Z,9.02
2018-10-16T02:27:23.132Z,8.90
2018-10-16T02:29:51.806Z,9.12
2018-10-16T02:32:20.758Z,9.22
2018-10-16T02:34:49.394Z,9.32
2018-10-16T02:37:18.299Z,8.95
2018-10-16T02:39:47.098Z,8.83
2018-10-16T02:42:16.170Z,8.87
2018-10-16T02:44:44.743Z,8.63
2018-10-16T02:47:13.563Z,8.63
2018-10-16T02:49:42.295Z,8.72
2018-10-16T02:52:10.962Z,8.50
2018-10-16T02:54:40.161Z,8.62
2018-10-16T02:57:09.348Z,8.59
2018-10-16T02:59:38.026Z,8.51
2018-10-16T03:02:07.210Z,8.50
2018-10-16T03:04:35.843Z,8.49
2018-10-16T03:07:04.793Z,8.58
2018-10-16T03:09:33.854Z,8.46
2018-10-16T03:12:02.688Z,8.41
2018-10-16T03:14:31.506Z,8.29
2018-10-16T03:17:00.466Z,8.33
2018-10-16T03:19:29.166Z,8.26
2018-10-16T03:21:58.262Z,8.26
2018-10-16T03:24:27.468Z,8.32
2018-10-16T03:26:56.169Z,8.44
2018-10-16T03:29:24.748Z,8.48
2018-10-16T03:31:53.730Z,8.48
2018-10-16T03:34:22.330Z,8.47
2018-10-16T03:36:51.428Z,8.49
2018-10-16T03:39:20.419Z,8.36
2018-10-16T03:41:49.264Z,8.35
2018-10-16T03:44:18.167Z,8.36
2018-10-16T03:46:47.162Z,8.31
2018-10-16T03:49:15.967Z,8.31
2018-10-16T03:51:44.932Z,8.17
2018-10-16T03:54:13.960Z,8.19
2018-10-16T03:56:42.684Z,8.23
2018-10-16T03:59:11.720Z,8.21
2018-10-16T04:01:40.431Z,8.25
2018-10-16T04:04:09.967Z,8.10
2018-10-16T04:06:38.799Z,8.04
2018-10-16T04:09:08.006Z,8.05
2018-10-16T04:11:37.109Z,8.14
2018-10-16T04:14:06.125Z,8.22
2018-10-16T04:16:34.884Z,8.44
2018-10-16T04:19:03.679Z,8.54
2018-10-16T04:21:38.502Z,8.71
2018-10-16T04:24:07.681Z,8.76
2018-10-16T04:26:37.134Z,8.51
2018-10-16T04:29:06.488Z,8.37
2018-10-16T04:31:35.098Z,8.48
2018-10-16T04:34:04.272Z,8.44
2018-10-16T04:36:33.227Z,8.21
2018-10-16T04:39:02.307Z,8.09
2018-10-16T04:41:31.540Z,8.25
2018-10-16T04:44:00.578Z,8.16
2018-10-16T04:46:29.711Z,8.09
2018-10-16T04:48:59.384Z,8.00
2018-10-16T04:51:28.712Z,7.95
2018-10-16T04:53:57.479Z,7.88
2018-10-16T04:56:26.615Z,7.98
2018-10-16T04:58:55.340Z,8.09
2018-10-16T05:01:24.047Z,8.18
2018-10-16T05:03:52.955Z,8.26
2018-10-16T05:06:22.076Z,8.08
2018-10-16T05:08:51.135Z,7.99
2018-10-16T05:11:19.968Z,7.98
2018-10-16T05:13:49.019Z,8.09
2018-10-16T05:16:18.006Z,8.18
2018-10-16T05:18:46.735Z,8.33
2018-10-16T05:21:15.385Z,8.38
2018-10-16T05:23:44.507Z,8.49
2018-10-16T05:26:13.437Z,8.64
2018-10-16T05:28:42.212Z,8.74
2018-10-16T05:31:10.992Z,8.66
2018-10-16T05:33:40.178Z,8.83
2018-10-16T05:36:09.314Z,8.94
2018-10-16T05:38:38.176Z,9.05
2018-10-16T05:41:07.119Z,9.16
2018-10-16T05:43:36.162Z,9.25
2018-10-16T05:46:05.119Z,9.42
2018-10-16T05:48:33.894Z,9.64
2018-10-16T05:51:02.822Z,9.78
2018-10-16T05:53:31.794Z,9.86
2018-10-16T05:56:05.881Z,9.99
2018-10-16T05:58:35.139Z,10.16
2018-10-16T06:01:03.902Z,10.39
2018-10-16T06:03:32.648Z,10.52
2018-10-16T06:06:01.616Z,10.68
2018-10-16T06:08:30.217Z,10.80
2018-10-16T06:10:59.040Z,10.99
2018-10-16T06:13:27.939Z,11.16
2018-10-16T06:15:57.081Z,11.26
2018-10-16T06:18:25.919Z,11.43
2018-10-16T06:20:54.679Z,11.69
2018-10-16T06:23:23.961Z,11.83
2018-10-16T06:25:53.023Z,11.95
2018-10-16T06:28:24.080Z,12.23
2018-10-16T06:30:52.835Z,12.37
2018-10-16T06:33:24.347Z,12.65
2018-10-16T06:35:53.037Z,12.73
2018-10-16T06:38:21.776Z,12.80
2018-10-16T06:40:50.909Z,12.97
2018-10-16T06:43:19.650Z,13.15
2018-10-16T06:45:48.326Z,13.34
2018-10-16T06:48:17.620Z,13.52
2018-10-16T06:50:46.407Z,13.65
2018-10-16T06:53:15.254Z,13.73
2018-10-16T06:55:44.130Z,13.79
2018-10-16T06:58:12.890Z,13.93
2018-10-16T07:00:41.595Z,14.27
2018-10-16T07:03:10.350Z,14.29
2018-10-16T07:05:39.105Z,14.27
2018-10-16T07:08:08.226Z,14.33
2018-10-16T07:10:37.147Z,14.46
2018-10-16T07:13:06.039Z,14.59
2018-10-16T07:15:35.015Z,14.69
2018-10-16T07:18:04.003Z,14.93
2018-10-16T07:20:32.726Z,15.19
2018-10-16T07:23:01.776Z,15.00
2018-10-16T07:25:30.510Z,15.13
2018-10-16T07:27:59.310Z,15.16
2018-10-16T07:30:28.104Z,15.30
2018-10-16T07:32:57.002Z,15.50
2018-10-16T07:35:26.085Z,15.59
2018-10-16T07:37:55.181Z,15.66
2018-10-16T07:40:23.946Z,15.65
2018-10-16T07:42:52.707Z,15.70
2018-10-16T07:45:21.852Z,15.80
2018-10-16T07:47:50.522Z,15.94
2018-10-16T07:50:19.368Z,15.92
2018-10-16T07:52:48.223Z,16.07
2018-10-16T07:55:17.438Z,16.18
2018-10-16T07:57:46.235Z,16.43
2018-10-16T08:00:14.963Z,16.52
2018-10-16T08:02:44.504Z,16.62
2018-10-16T08:05:13.752Z,16.63
2018-10-16T08:07:42.800Z,16.70
2018-10-16T08:10:13.640Z,16.71
2018-10-16T08:12:43.287Z,16.68
2018-10-16T08:15:12.587Z,16.70
2018-10-16T08:17:42.051Z,16.87
2018-10-16T08:20:10.945Z,16.89
2018-10-16T08:22:39.936Z,17.10
2018-10-16T08:25:09.068Z,17.19
2018-10-16T08:27:37.682Z,17.26
2018-10-16T08:30:07.893Z,17.28
2018-10-16T08:32:36.667Z,17.25
2018-10-16T08:35:05.675Z,17.42
2018-10-16T08:38:43.410Z,17.71
2018-10-16T08:41:14.210Z,17.61
2018-10-16T08:43:54.217Z,17.77
2018-10-16T08:46:34.040Z,18.01
2018-10-16T08:49:13.865Z,18.04
2018-10-16T08:51:58.818Z,18.07
2018-10-16T08:54:27.511Z,18.15
2018-10-16T08:56:56.249Z,18.40
2018-10-16T08:59:24.994Z,18.48
2018-10-16T09:01:53.798Z,18.61
2018-10-16T09:04:22.454Z,18.61
2018-10-16T09:06:51.750Z,18.58
2018-10-16T09:09:20.603Z,18.92
2018-10-16T09:11:49.951Z,19.12
2018-10-16T09:14:19.006Z,19.12
2018-10-16T09:16:48.020Z,19.54
2018-10-16T09:19:16.879Z,20.01
2018-10-16T09:21:46.041Z,20.46
2018-10-16T09:24:14.990Z,20.69
2018-10-16T09:26:43.723Z,21.16
2018-10-16T09:29:12.666Z,21.39
2018-10-16T09:31:41.554Z,21.73
2018-10-16T09:34:10.443Z,22.05
2018-10-16T09:36:39.430Z,22.18
2018-10-16T09:39:10.939Z,22.02
2018-10-16T09:41:40.056Z,22.45
2018-10-16T09:44:09.307Z,22.91
2018-10-16T09:46:39.185Z,23.18
2018-10-16T09:49:08.135Z,23.42
2018-10-16T09:51:36.993Z,23.77
2018-10-16T09:54:06.029Z,24.18
2018-10-16T09:56:35.201Z,24.43
2018-10-16T09:59:03.974Z,24.46
2018-10-16T10:01:37.922Z,24.49
2018-10-16T10:04:06.936Z,24.70
2018-10-16T10:06:35.869Z,24.90
2018-10-16T10:09:07.231Z,24.82
2018-10-16T10:11:36.208Z,25.10
2018-10-16T10:14:05.253Z,25.25
2018-10-16T10:16:34.192Z,24.78
2018-10-16T10:19:03.208Z,24.36
2018-10-16T10:21:32.020Z,23.94
2018-10-16T10:24:00.746Z,24.20
2018-10-16T10:26:29.523Z,24.20
2018-10-16T10:28:58.575Z,24.55
2018-10-16T10:31:28.297Z,24.51
2018-10-16T10:33:57.377Z,24.56
2018-10-16T10:36:26.431Z,24.59
2018-10-16T10:38:55.216Z,24.73
2018-10-16T10:41:24.343Z,24.96
2018-10-16T10:43:53.476Z,24.66
2018-10-16T10:46:22.172Z,24.60
2018-10-16T10:48:50.888Z,24.84
2018-10-16T10:51:20.326Z,25.01
2018-10-16T10:53:48.859Z,25.32
2018-10-16T10:56:17.575Z,25.53
2018-10-16T10:58:46.276Z,25.87
2018-10-16T11:01:15.274Z,25.91
2018-10-16T11:03:44.943Z,25.99
2018-10-16T11:06:14.080Z,26.23
2018-10-16T11:08:43.072Z,26.21
2018-10-16T11:11:12.024Z,25.96
2018-10-16T11:13:41.002Z,26.14
2018-10-16T11:16:09.758Z,26.39
2018-10-16T11:18:38.882Z,26.55
2018-10-16T11:21:08.319Z,26.70
2018-10-16T11:23:37.132Z,26.94
2018-10-16T11:26:06.064Z,27.09
2018-10-16T11:28:34.895Z,27.19
2018-10-16T11:31:04.030Z,27.03
2018-10-16T11:33:32.853Z,26.89
2018-10-16T11:36:01.926Z,27.02
2018-10-16T11:38:30.991Z,27.05
2018-10-16T11:40:59.977Z,27.12
2018-10-16T11:43:29.116Z,27.28
2018-10-16T11:45:58.371Z,27.65
2018-10-16T11:48:27.266Z,27.77
2018-10-16T11:50:56.191Z,27.52
2018-10-16T11:53:24.842Z,27.95
2018-10-16T11:55:53.621Z,27.79
2018-10-16T11:58:22.634Z,27.84
2018-10-16T12:00:51.626Z,27.80
2018-10-16T12:03:20.431Z,27.79
2018-10-16T12:05:49.534Z,28.00
2018-10-16T12:08:18.411Z,28.03
2018-10-16T12:10:47.286Z,28.16
2018-10-16T12:13:16.097Z,28.24
2018-10-16T12:15:45.946Z,28.66
2018-10-16T12:18:17.876Z,28.49
2018-10-16T12:21:49.834Z,28.74
2018-10-16T12:24:18.783Z,28.65
2018-10-16T12:26:47.491Z,28.60
2018-10-16T12:29:16.279Z,28.70
2018-10-16T12:31:45.423Z,28.65
2018-10-16T12:34:14.532Z,28.65
2018-10-16T12:36:43.505Z,28.83
2018-10-16T12:39:12.548Z,28.86
2018-10-16T12:41:41.373Z,29.03
2018-10-16T12:44:10.252Z,28.85
2018-10-16T12:46:39.009Z,28.84
2018-10-16T12:49:07.850Z,28.85
2018-10-16T12:51:36.576Z,28.81
2018-10-16T12:54:05.585Z,28.81
2018-10-16T12:56:34.259Z,29.11
2018-10-16T12:59:03.404Z,29.25
2018-10-16T13:01:32.347Z,29.33
2018-10-16T13:04:01.179Z,29.15
2018-10-16T13:06:30.452Z,29.58
2018-10-16T13:08:59.267Z,29.68
2018-10-16T13:11:28.362Z,29.75
2018-10-16T13:13:57.122Z,30.17
2018-10-16T13:16:26.184Z,30.33
2018-10-16T13:18:55.048Z,30.31
2018-10-16T13:21:24.304Z,30.22
2018-10-16T13:23:52.973Z,30.41
2018-10-16T13:26:21.667Z,30.77
2018-10-16T13:28:50.743Z,30.60
2018-10-16T13:31:19.656Z,31.16
2018-10-16T13:33:48.623Z,31.10
2018-10-16T13:36:17.439Z,30.74
2018-10-16T13:38:46.584Z,31.27
2018-10-16T13:41:15.221Z,31.26
2018-10-16T13:43:44.603Z,31.76
2018-10-16T13:46:13.599Z,31.75
2018-10-16T13:48:42.458Z,32.02
2018-10-16T13:51:11.198Z,31.42
2018-10-16T13:53:39.906Z,31.53
2018-10-16T13:56:08.999Z,30.98
2018-10-16T13:58:38.090Z,30.69
2018-10-16T14:01:07.247Z,30.82
2018-10-16T14:03:36.370Z,30.38
2018-10-16T14:06:05.242Z,29.99
2018-10-16T14:08:33.925Z,29.94
2018-10-16T14:11:02.885Z,29.77
2018-10-16T14:13:31.993Z,29.54
2018-10-16T14:16:00.909Z,29.50
2018-10-16T14:18:29.692Z,29.22
2018-10-16T14:20:58.391Z,28.97
2018-10-16T14:23:27.132Z,28.95
2018-10-16T14:25:56.167Z,28.73
2018-10-16T14:28:25.058Z,28.51
2018-10-16T14:30:53.996Z,28.46
2018-10-16T14:33:22.926Z,28.50
2018-10-16T14:35:51.812Z,28.32
2018-10-16T14:38:20.836Z,28.43
2018-10-16T14:40:49.670Z,28.33
2018-10-16T14:43:18.642Z,27.97
2018-10-16T14:45:47.593Z,27.60
2018-10-16T14:48:16.445Z,27.25
2018-10-16T14:50:45.214Z,27.17
2018-10-16T14:53:13.986Z,27.10
2018-10-16T14:55:42.587Z,26.81
2018-10-16T14:58:11.364Z,26.73
2018-10-16T15:00:40.225Z,26.43
2018-10-16T15:03:09.136Z,26.18
2018-10-16T15:05:37.951Z,26.07
2018-10-16T15:08:06.944Z,25.96
2018-10-16T15:10:35.837Z,25.91
2018-10-16T15:13:04.475Z,25.81
2018-10-16T15:15:33.274Z,25.48
2018-10-16T15:18:02.063Z,25.38
2018-10-16T15:20:30.711Z,25.00
2018-10-16T15:22:59.419Z,24.92
2018-10-16T15:25:28.153Z,24.30
2018-10-16T15:27:57.123Z,24.10
2018-10-16T15:30:26.074Z,23.82
2018-10-16T15:32:54.937Z,23.41
2018-10-16T15:35:23.692Z,23.24
2018-10-16T15:37:53.117Z,22.81
2018-10-16T15:40:21.867Z,22.48
2018-10-16T15:42:50.733Z,22.14
2018-10-16T15:45:19.417Z,21.77
2018-10-16T15:47:48.266Z,21.29
2018-10-16T15:50:16.902Z,21.00
2018-10-16T15:52:45.674Z,20.72
2018-10-16T15:55:14.427Z,20.57
2018-10-16T15:57:43.090Z,20.32
2018-10-16T16:00:14.721Z,20.16
2018-10-16T16:02:43.540Z,19.91
2018-10-16T16:05:12.459Z,19.75
2018-10-16T16:07:41.480Z,19.63
2018-10-16T16:10:12.463Z,19.44
2018-10-16T16:12:41.196Z,19.27
2018-10-16T16:15:11.588Z,19.19
2018-10-16T16:17:40.974Z,19.02
2018-10-16T16:20:11.314Z,18.96
2018-10-16T16:22:40.270Z,18.86
2018-10-16T16:25:11.031Z,18.79
2018-10-16T16:27:40.248Z,18.67
2018-10-16T16:30:12.683Z,18.57
2018-10-16T16:32:41.779Z,18.44
2018-10-16T16:35:10.574Z,18.30
2018-10-16T16:37:39.315Z,18.28
2018-10-16T16:40:10.079Z,18.23
2018-10-16T16:42:38.935Z,18.06
2018-10-16T16:45:08.858Z,18.02
2018-10-16T16:47:37.998Z,17.90
2018-10-16T16:50:08.072Z,17.81
2018-10-16T16:52:36.843Z,17.69
2018-10-16T16:55:07.003Z,17.31
2018-10-16T16:57:35.895Z,16.86
2018-10-16T17:00:05.134Z,16.78
2018-10-16T17:02:33.998Z,16.61
2018-10-16T17:05:02.936Z,16.49
2018-10-16T17:10:13.893Z,15.91
2018-10-16T17:12:42.879Z,15.53
2018-10-16T17:15:14.817Z,15.10
2018-10-16T17:17:44.265Z,14.95
2018-10-16T17:20:13.221Z,14.67
2018-10-16T17:22:41.978Z,14.41
2018-10-16T17:25:12.922Z,14.24
2018-10-16T17:27:41.851Z,14.30
2018-10-16T17:30:12.703Z,14.48
2018-10-16T17:32:42.192Z,14.56
2018-10-16T17:35:11.777Z,14.57
2018-10-16T17:37:41.146Z,14.65
2018-10-16T17:40:12.115Z,14.45
2018-10-16T17:42:41.148Z,14.37
2018-10-16T17:45:11.668Z,14.28
2018-10-16T17:47:40.552Z,14.02
2018-10-16T17:50:11.703Z,13.82
2018-10-16T17:52:40.874Z,13.65
2018-10-16T17:55:10.471Z,13.51
2018-10-16T17:57:39.696Z,13.47
2018-10-16T18:00:10.955Z,13.58
2018-10-16T18:02:40.092Z,13.66
2018-10-16T18:05:08.763Z,13.76
2018-10-16T18:07:37.643Z,13.59
2018-10-16T18:10:07.152Z,13.44
2018-10-16T18:12:35.994Z,13.46
2018-10-16T18:15:05.443Z,13.42
2018-10-16T18:17:34.091Z,12.74
2018-10-16T18:20:02.693Z,13.25
2018-10-16T18:22:31.793Z,13.31
2018-10-16T18:25:00.662Z,13.24
2018-10-16T18:27:29.391Z,13.35
2018-10-16T18:29:58.322Z,13.35
2018-10-16T18:32:27.031Z,13.31
2018-10-16T18:34:56.054Z,13.33
2018-10-16T18:37:25.365Z,13.31
2018-10-16T18:39:54.407Z,13.35
2018-10-16T18:42:23.155Z,13.46
2018-10-16T18:44:52.463Z,13.15
2018-10-16T18:47:21.151Z,12.97
2018-10-16T18:49:49.892Z,12.99
2018-10-16T18:52:18.708Z,13.09
2018-10-16T18:54:47.567Z,13.07
2018-10-16T18:57:16.680Z,12.70
2018-10-16T18:59:45.706Z,12.48
2018-10-16T19:02:14.476Z,12.64
2018-10-16T19:04:43.544Z,12.87
2018-10-16T19:07:12.670Z,13.02
2018-10-16T19:09:41.875Z,13.16
2018-10-16T19:12:10.772Z,13.15
2018-10-16T19:14:39.802Z,13.17
2018-10-16T19:17:08.390Z,13.22
2018-10-16T19:19:37.113Z,13.00
2018-10-16T19:22:06.067Z,12.83
2018-10-16T19:24:34.972Z,12.73
2018-10-16T19:27:03.910Z,12.36
2018-10-16T19:29:32.621Z,12.17
2018-10-16T19:32:01.404Z,12.13
2018-10-16T19:34:30.352Z,11.90
2018-10-16T19:36:59.295Z,11.73
2018-10-16T19:39:28.038Z,11.58
2018-10-16T19:41:57.110Z,11.55
2018-10-16T19:44:26.486Z,11.62
2018-10-16T19:46:55.174Z,11.68
2018-10-16T19:49:23.911Z,11.61
2018-10-16T19:51:52.843Z,11.53
2018-10-16T19:54:21.729Z,11.38
2018-10-16T19:56:50.882Z,11.59
2018-10-16T19:59:19.529Z,11.82
2018-10-16T20:01:48.262Z,11.88
2018-10-16T20:04:17.139Z,11.58
2018-10-16T20:06:45.785Z,11.79
2018-10-16T20:09:14.872Z,11.80
2018-10-16T20:11:43.868Z,11.74
2018-10-16T20:14:12.656Z,11.93
2018-10-16T20:16:41.731Z,11.55
2018-10-16T20:19:10.379Z,11.36
2018-10-16T20:21:39.154Z,11.19
2018-10-16T20:24:08.193Z,11.18
2018-10-16T20:26:37.202Z,11.13
2018-10-16T20:29:05.835Z,11.18
2018-10-16T20:31:34.713Z,11.07
2018-10-16T20:34:03.511Z,11.12
2018-10-16T20:36:32.327Z,11.22
2018-10-16T20:39:01.148Z,10.94
2018-10-16T20:41:30.115Z,10.84
2018-10-16T20:43:59.039Z,10.81
2018-10-16T20:46:27.818Z,10.75
2018-10-16T20:48:56.562Z,10.90
2018-10-16T20:51:25.368Z,11.17
2018-10-16T20:53:54.236Z,10.95
2018-10-16T20:56:23.326Z,10.87
2018-10-16T20:58:52.397Z,10.83
2018-10-16T21:01:21.101Z,10.94
2018-10-16T21:03:49.967Z,10.85
2018-10-16T21:06:19.288Z,10.74
2018-10-16T21:08:47.783Z,10.52
2018-10-16T21:11:17.010Z,10.35
2018-10-16T21:13:45.649Z,10.40
2018-10-16T21:16:14.704Z,10.41
2018-10-16T21:18:43.547Z,10.36
2018-10-16T21:21:12.328Z,10.35
2018-10-16T21:23:40.948Z,10.32
2018-10-16T21:26:10.098Z,10.52
2018-10-16T21:28:38.953Z,10.61
2018-10-16T21:31:07.815Z,10.70
2018-10-16T21:33:36.578Z,10.83
2018-10-16T21:36:05.867Z,10.68
2018-10-16T21:38:34.805Z,10.58
2018-10-16T21:41:03.520Z,10.45
2018-10-16T21:43:32.360Z,10.47
2018-10-16T21:46:01.155Z,10.27
2018-10-16T21:48:29.891Z,10.24
2018-10-16T21:50:58.867Z,10.18
2018-10-16T21:53:27.699Z,10.05
2018-10-16T21:55:56.762Z,10.17
2018-10-16T21:58:25.543Z,10.13
2018-10-16T22:00:59.643Z,10.11
2018-10-16T22:03:28.628Z,10.11
2018-10-16T22:05:57.547Z,9.97
2018-10-16T22:08:26.401Z,9.88
2018-10-16T22:10:55.511Z,9.99
2018-10-16T22:13:24.613Z,9.98
2018-10-16T22:15:53.338Z,9.85
2018-10-16T22:18:22.008Z,9.76
2018-10-16T22:20:50.676Z,9.65
2018-10-16T22:23:19.552Z,9.63
2018-10-16T22:25:48.366Z,9.60
2018-10-16T22:28:17.285Z,9.66
2018-10-16T22:30:46.409Z,9.68
2018-10-16T22:33:15.467Z,9.62
2018-10-16T22:35:44.474Z,9.56
2018-10-16T22:38:13.383Z,9.57
2018-10-16T22:40:42.518Z,9.52
2018-10-16T22:43:11.957Z,9.54
2018-10-16T22:45:40.759Z,9.47
2018-10-16T22:48:09.459Z,9.60
2018-10-16T22:50:38.247Z,9.77
2018-10-16T22:53:07.062Z,9.71
2018-10-16T22:55:35.785Z,9.79
2018-10-16T22:58:04.820Z,9.55
2018-10-16T23:00:33.560Z,9.50
2018-10-16T23:03:02.461Z,9.55
2018-10-16T23:05:31.194Z,9.57
2018-10-16T23:07:59.848Z,9.49
2018-10-16T23:10:28.905Z,9.47
2018-10-16T23:13:08.242Z,9.47
2018-10-16T23:15:37.153Z,9.39
2018-10-16T23:18:06.194Z,9.23
2018-10-16T23:20:35.410Z,9.22
2018-10-16T23:23:04.574Z,9.18
2018-10-16T23:25:33.416Z,9.32
2018-10-16T23:28:02.774Z,9.28
2018-10-16T23:30:31.738Z,9.07
2018-10-16T23:33:00.564Z,9.13
2018-10-16T23:35:29.542Z,9.08
2018-10-16T23:37:58.649Z,8.95
2018-10-16T23:40:27.612Z,9.00
2018-10-16T23:42:56.387Z,8.95
2018-10-16T23:45:25.422Z,9.01
2018-10-16T23:47:54.018Z,8.88
2018-10-16T23:50:22.946Z,8.94
2018-10-16T23:52:52.026Z,8.87
2018-10-16T23:55:21.078Z,8.75
2018-10-16T23:57:50.285Z,8.80
